sensor_id;sensor_type;location;lat;lon;timestamp;pressure;altitude;pressure_sealevel;temperature;humidity
13420;BME280;6781;58.440;15.470;2023-01-30T00:01:12;99353.91;;;4.22;100.00
13420;BME280;6781;58.440;15.470;2023-01-30T00:03:41;99348.75;;;4.22;100.00
13420;BME280;6781;58.440;15.470;2023-01-30T00:06:09;99358.44;;;4.19;100.00
13420;BME280;6781;58.440;15.470;2023-01-30T00:08:35;99366.25;;;4.17;100.00
13420;BME280;6781;58.440;15.470;2023-01-30T00:11:02;99366.34;;;4.16;100.00
13420;BME280;6781;58.440;15.470;2023-01-30T00:13:31;99357.03;;;4.15;100.00
13420;BME280;6781;58.440;15.470;2023-01-30T00:15:59;99332.41;;;4.12;100.00
13420;BME280;6781;58.440;15.470;2023-01-30T00:18:26;99326.47;;;4.12;100.00
13420;BME280;6781;58.440;15.470;2023-01-30T00:20:56;99325.88;;;4.08;100.00
13420;BME280;6781;58.440;15.470;2023-01-30T00:23:26;99292.41;;;4.10;100.00
13420;BME280;6781;58.440;15.470;2023-01-30T00:25:55;99279.91;;;4.05;100.00
13420;BME280;6781;58.440;15.470;2023-01-30T00:28:33;99277.47;;;4.04;100.00
13420;BME280;6781;58.440;15.470;2023-01-30T00:31:01;99255.31;;;4.03;100.00
13420;BME280;6781;58.440;15.470;2023-01-30T00:33:36;99266.38;;;4.03;100.00
13420;BME280;6781;58.440;15.470;2023-01-30T00:36:09;99305.91;;;4.01;100.00
13420;BME280;6781;58.440;15.470;2023-01-30T00:38:37;99308.56;;;3.99;100.00
13420;BME280;6781;58.440;15.470;2023-01-30T00:41:04;99314.63;;;3.98;100.00
13420;BME280;6781;58.440;15.470;2023-01-30T00:43:32;99322.31;;;3.98;100.00
13420;BME280;6781;58.440;15.470;2023-01-30T00:46:19;99316.38;;;3.98;100.00
13420;BME280;6781;58.440;15.470;2023-01-30T00:49:05;99329.44;;;3.95;100.00
13420;BME280;6781;58.440;15.470;2023-01-30T00:54:07;99330.03;;;3.98;100.00
13420;BME280;6781;58.440;15.470;2023-01-30T00:56:34;99323.84;;;4.01;100.00
13420;BME280;6781;58.440;15.470;2023-01-30T00:59:02;99315.00;;;4.05;100.00
13420;BME280;6781;58.440;15.470;2023-01-30T01:01:31;99309.19;;;4.03;100.00
13420;BME280;6781;58.440;15.470;2023-01-30T01:03:57;99292.16;;;4.02;100.00
13420;BME280;6781;58.440;15.470;2023-01-30T01:06:24;99301.47;;;4.03;100.00
13420;BME280;6781;58.440;15.470;2023-01-30T01:08:51;99306.38;;;4.06;100.00
13420;BME280;6781;58.440;15.470;2023-01-30T01:11:18;99299.41;;;4.08;100.00
13420;BME280;6781;58.440;15.470;2023-01-30T01:13:51;99296.72;;;4.09;100.00
13420;BME280;6781;58.440;15.470;2023-01-30T01:16:21;99293.94;;;4.12;100.00
13420;BME280;6781;58.440;15.470;2023-01-30T01:18:56;99285.63;;;4.09;100.00
13420;BME280;6781;58.440;15.470;2023-01-30T01:21:24;99286.47;;;4.09;100.00
13420;BME280;6781;58.440;15.470;2023-01-30T01:23:51;99276.78;;;4.13;100.00
13420;BME280;6781;58.440;15.470;2023-01-30T01:26:20;99278.31;;;4.15;100.00
13420;BME280;6781;58.440;15.470;2023-01-30T01:28:56;99281.69;;;4.16;100.00
13420;BME280;6781;58.440;15.470;2023-01-30T01:31:23;99273.06;;;4.17;100.00
13420;BME280;6781;58.440;15.470;2023-01-30T01:33:51;99281.25;;;4.22;100.00
13420;BME280;6781;58.440;15.470;2023-01-30T01:36:30;99280.78;;;4.28;100.00
13420;BME280;6781;58.440;15.470;2023-01-30T01:38:57;99275.66;;;4.28;100.00
13420;BME280;6781;58.440;15.470;2023-01-30T01:41:24;99264.34;;;4.31;100.00
13420;BME280;6781;58.440;15.470;2023-01-30T01:43:58;99257.47;;;4.31;100.00
13420;BME280;6781;58.440;15.470;2023-01-30T01:46:27;99241.38;;;4.29;100.00
13420;BME280;6781;58.440;15.470;2023-01-30T01:48:59;99247.91;;;4.33;100.00
13420;BME280;6781;58.440;15.470;2023-01-30T01:51:32;99243.72;;;4.32;100.00
13420;BME280;6781;58.440;15.470;2023-01-30T01:54:01;99245.22;;;4.35;100.00
13420;BME280;6781;58.440;15.470;2023-01-30T01:56:29;99264.72;;;4.37;100.00
13420;BME280;6781;58.440;15.470;2023-01-30T01:59:00;99251.06;;;4.37;100.00
13420;BME280;6781;58.440;15.470;2023-01-30T02:01:27;99253.63;;;4.37;100.00
13420;BME280;6781;58.440;15.470;2023-01-30T02:03:57;99236.00;;;4.32;100.00
13420;BME280;6781;58.440;15.470;2023-01-30T02:06:27;99241.59;;;4.26;100.00
13420;BME280;6781;58.440;15.470;2023-01-30T02:08:54;99229.00;;;4.23;100.00
13420;BME280;6781;58.440;15.470;2023-01-30T02:11:25;99230.97;;;4.19;100.00
13420;BME280;6781;58.440;15.470;2023-01-30T02:13:56;99222.81;;;4.14;100.00
13420;BME280;6781;58.440;15.470;2023-01-30T02:16:24;99208.69;;;4.09;100.00
13420;BME280;6781;58.440;15.470;2023-01-30T02:18:50;99215.09;;;4.03;100.00
13420;BME280;6781;58.440;15.470;2023-01-30T02:21:33;99226.50;;;3.99;100.00
13420;BME280;6781;58.440;15.470;2023-01-30T02:24:16;99223.13;;;3.99;100.00
13420;BME280;6781;58.440;15.470;2023-01-30T02:29:38;99214.97;;;3.93;100.00
13420;BME280;6781;58.440;15.470;2023-01-30T02:32:15;99203.28;;;3.89;100.00
13420;BME280;6781;58.440;15.470;2023-01-30T02:34:49;99216.34;;;3.86;100.00
13420;BME280;6781;58.440;15.470;2023-01-30T02:37:22;99208.66;;;3.86;100.00
13420;BME280;6781;58.440;15.470;2023-01-30T02:39:56;99208.53;;;3.88;100.00
13420;BME280;6781;58.440;15.470;2023-01-30T02:42:31;99216.81;;;3.91;100.00
13420;BME280;6781;58.440;15.470;2023-01-30T02:45:00;99224.28;;;3.95;100.00
13420;BME280;6781;58.440;15.470;2023-01-30T02:47:32;99216.59;;;3.95;100.00
13420;BME280;6781;58.440;15.470;2023-01-30T02:50:03;99221.25;;;3.89;100.00
13420;BME280;6781;58.440;15.470;2023-01-30T02:52:33;99214.59;;;3.87;100.00
13420;BME280;6781;58.440;15.470;2023-01-30T02:55:05;99210.97;;;3.78;100.00
13420;BME280;6781;58.440;15.470;2023-01-30T02:57:32;99186.50;;;3.85;100.00
13420;BME280;6781;58.440;15.470;2023-01-30T02:59:59;99162.94;;;3.80;100.00
13420;BME280;6781;58.440;15.470;2023-01-30T03:02:35;99150.59;;;3.74;100.00
13420;BME280;6781;58.440;15.470;2023-01-30T03:07:43;99118.41;;;3.59;100.00
13420;BME280;6781;58.440;15.470;2023-01-30T03:10:14;99111.88;;;3.55;100.00
13420;BME280;6781;58.440;15.470;2023-01-30T03:12:47;99103.72;;;3.50;100.00
13420;BME280;6781;58.440;15.470;2023-01-30T03:15:16;99100.44;;;3.48;100.00
13420;BME280;6781;58.440;15.470;2023-01-30T03:17:49;99084.03;;;3.39;100.00
13420;BME280;6781;58.440;15.470;2023-01-30T03:20:17;99070.63;;;3.36;100.00
13420;BME280;6781;58.440;15.470;2023-01-30T03:22:45;99053.97;;;3.30;100.00
13420;BME280;6781;58.440;15.470;2023-01-30T03:25:12;99047.00;;;3.32;100.00
13420;BME280;6781;58.440;15.470;2023-01-30T03:27:41;99045.69;;;3.26;100.00
13420;BME280;6781;58.440;15.470;2023-01-30T03:30:10;99049.19;;;3.25;100.00
13420;BME280;6781;58.440;15.470;2023-01-30T03:32:37;99036.59;;;3.22;100.00
13420;BME280;6781;58.440;15.470;2023-01-30T03:35:07;99019.25;;;3.15;100.00
13420;BME280;6781;58.440;15.470;2023-01-30T03:37:36;99014.47;;;3.10;100.00
13420;BME280;6781;58.440;15.470;2023-01-30T03:40:04;99011.19;;;3.08;100.00
13420;BME280;6781;58.440;15.470;2023-01-30T03:42:31;99013.06;;;3.06;100.00
13420;BME280;6781;58.440;15.470;2023-01-30T03:44:58;99016.31;;;3.08;100.00
13420;BME280;6781;58.440;15.470;2023-01-30T03:47:25;99009.09;;;3.02;100.00
13420;BME280;6781;58.440;15.470;2023-01-30T03:49:52;98992.44;;;2.97;100.00
13420;BME280;6781;58.440;15.470;2023-01-30T03:52:34;98968.69;;;2.94;100.00
13420;BME280;6781;58.440;15.470;2023-01-30T03:55:01;98959.50;;;2.92;100.00
13420;BME280;6781;58.440;15.470;2023-01-30T03:57:28;98959.50;;;2.92;100.00
13420;BME280;6781;58.440;15.470;2023-01-30T03:59:56;98950.88;;;2.93;100.00
13420;BME280;6781;58.440;15.470;2023-01-30T04:02:23;98937.63;;;2.88;100.00
13420;BME280;6781;58.440;15.470;2023-01-30T04:04:55;98934.94;;;2.89;100.00
13420;BME280;6781;58.440;15.470;2023-01-30T04:07:24;98909.44;;;2.77;100.00
13420;BME280;6781;58.440;15.470;2023-01-30T04:12:45;98886.06;;;2.81;100.00
13420;BME280;6781;58.440;15.470;2023-01-30T04:15:13;98882.22;;;2.76;100.00
13420;BME280;6781;58.440;15.470;2023-01-30T04:17:44;98869.66;;;2.73;100.00
13420;BME280;6781;58.440;15.470;2023-01-30T04:20:12;98864.28;;;2.65;100.00
13420;BME280;6781;58.440;15.470;2023-01-30T04:22:39;98859.41;;;2.61;100.00
13420;BME280;6781;58.440;15.470;2023-01-30T04:25:06;98865.91;;;2.66;100.00
13420;BME280;6781;58.440;15.470;2023-01-30T04:27:33;98851.03;;;2.59;100.00
13420;BME280;6781;58.440;15.470;2023-01-30T04:30:02;98856.16;;;2.59;100.00
13420;BME280;6781;58.440;15.470;2023-01-30T04:32:29;98848.59;;;2.58;100.00
13420;BME280;6781;58.440;15.470;2023-01-30T04:34:55;98851.94;;;2.58;100.00
13420;BME280;6781;58.440;15.470;2023-01-30T04:37:22;98863.94;;;2.58;100.00
13420;BME280;6781;58.440;15.470;2023-01-30T04:39:49;98844.72;;;2.52;100.00
13420;BME280;6781;58.440;15.470;2023-01-30T04:42:16;98839.50;;;2.54;100.00
13420;BME280;6781;58.440;15.470;2023-01-30T04:44:46;98823.47;;;2.52;100.00
13420;BME280;6781;58.440;15.470;2023-01-30T04:47:14;98839.41;;;2.55;100.00
13420;BME280;6781;58.440;15.470;2023-01-30T04:49:41;98844.97;;;2.49;100.00
13420;BME280;6781;58.440;15.470;2023-01-30T04:52:08;98823.56;;;2.50;100.00
13420;BME280;6781;58.440;15.470;2023-01-30T04:54:36;98822.88;;;2.48;100.00
13420;BME280;6781;58.440;15.470;2023-01-30T04:57:03;98814.50;;;2.46;100.00
13420;BME280;6781;58.440;15.470;2023-01-30T04:59:30;98832.28;;;2.48;100.00
13420;BME280;6781;58.440;15.470;2023-01-30T05:01:56;98798.19;;;2.36;100.00
13420;BME280;6781;58.440;15.470;2023-01-30T05:04:25;98800.53;;;2.39;100.00
13420;BME280;6781;58.440;15.470;2023-01-30T05:06:51;98772.84;;;2.33;100.00
13420;BME280;6781;58.440;15.470;2023-01-30T05:09:18;98760.66;;;2.37;100.00
13420;BME280;6781;58.440;15.470;2023-01-30T05:11:49;98776.13;;;2.35;100.00
13420;BME280;6781;58.440;15.470;2023-01-30T05:14:16;98744.84;;;2.32;100.00
13420;BME280;6781;58.440;15.470;2023-01-30T05:16:46;98745.88;;;2.29;100.00
13420;BME280;6781;58.440;15.470;2023-01-30T05:19:13;98736.69;;;2.26;100.00
13420;BME280;6781;58.440;15.470;2023-01-30T05:21:41;98727.28;;;2.27;100.00
13420;BME280;6781;58.440;15.470;2023-01-30T05:24:09;98727.75;;;2.21;100.00
13420;BME280;6781;58.440;15.470;2023-01-30T05:26:49;98714.25;;;2.19;100.00
13420;BME280;6781;58.440;15.470;2023-01-30T05:29:16;98709.16;;;2.19;100.00
13420;BME280;6781;58.440;15.470;2023-01-30T05:31:50;98707.53;;;2.18;100.00
13420;BME280;6781;58.440;15.470;2023-01-30T05:34:24;98693.81;;;2.19;100.00
13420;BME280;6781;58.440;15.470;2023-01-30T05:36:53;98694.03;;;2.16;100.00
13420;BME280;6781;58.440;15.470;2023-01-30T05:39:19;98691.72;;;2.13;100.00
13420;BME280;6781;58.440;15.470;2023-01-30T05:41:46;98697.28;;;2.18;100.00
13420;BME280;6781;58.440;15.470;2023-01-30T05:44:13;98691.13;;;2.09;100.00
13420;BME280;6781;58.440;15.470;2023-01-30T05:46:40;98681.03;;;2.08;100.00
13420;BME280;6781;58.440;15.470;2023-01-30T05:49:07;98661.75;;;2.04;100.00
13420;BME280;6781;58.440;15.470;2023-01-30T05:51:34;98651.03;;;1.99;100.00
13420;BME280;6781;58.440;15.470;2023-01-30T05:54:02;98661.03;;;2.02;100.00
13420;BME280;6781;58.440;15.470;2023-01-30T05:56:29;98645.94;;;1.99;100.00
13420;BME280;6781;58.440;15.470;2023-01-30T05:58:58;98650.00;;;2.01;100.00
13420;BME280;6781;58.440;15.470;2023-01-30T06:01:25;98649.41;;;1.98;100.00
13420;BME280;6781;58.440;15.470;2023-01-30T06:04:06;98630.25;;;1.92;100.00
13420;BME280;6781;58.440;15.470;2023-01-30T06:06:33;98635.13;;;1.95;100.00
13420;BME280;6781;58.440;15.470;2023-01-30T06:09:00;98623.41;;;1.92;100.00
13420;BME280;6781;58.440;15.470;2023-01-30T06:11:37;98625.50;;;1.99;100.00
13420;BME280;6781;58.440;15.470;2023-01-30T06:14:04;98633.16;;;1.99;100.00
13420;BME280;6781;58.440;15.470;2023-01-30T06:16:31;98634.09;;;1.98;100.00
13420;BME280;6781;58.440;15.470;2023-01-30T06:18:58;98623.16;;;1.95;100.00
13420;BME280;6781;58.440;15.470;2023-01-30T06:21:24;98623.84;;;1.98;100.00
13420;BME280;6781;58.440;15.470;2023-01-30T06:23:51;98619.69;;;1.96;100.00
13420;BME280;6781;58.440;15.470;2023-01-30T06:26:18;98605.50;;;1.92;100.00
13420;BME280;6781;58.440;15.470;2023-01-30T06:28:46;98593.44;;;1.94;100.00
13420;BME280;6781;58.440;15.470;2023-01-30T06:31:14;98593.66;;;1.91;100.00
13420;BME280;6781;58.440;15.470;2023-01-30T06:33:48;98599.59;;;1.92;100.00
13420;BME280;6781;58.440;15.470;2023-01-30T06:36:18;98604.56;;;1.93;100.00
13420;BME280;6781;58.440;15.470;2023-01-30T06:38:44;98596.44;;;1.88;100.00
13420;BME280;6781;58.440;15.470;2023-01-30T06:41:12;98590.88;;;1.83;100.00
13420;BME280;6781;58.440;15.470;2023-01-30T06:43:40;98593.78;;;1.90;100.00
13420;BME280;6781;58.440;15.470;2023-01-30T06:46:09;98585.41;;;1.88;100.00
13420;BME280;6781;58.440;15.470;2023-01-30T06:48:35;98590.63;;;1.86;100.00
13420;BME280;6781;58.440;15.470;2023-01-30T06:51:02;98592.25;;;1.87;100.00
13420;BME280;6781;58.440;15.470;2023-01-30T06:53:31;98588.19;;;1.85;100.00
13420;BME280;6781;58.440;15.470;2023-01-30T06:55:58;98575.53;;;1.83;100.00
13420;BME280;6781;58.440;15.470;2023-01-30T06:58:25;98573.69;;;1.85;100.00
13420;BME280;6781;58.440;15.470;2023-01-30T07:00:52;98547.56;;;1.82;100.00
13420;BME280;6781;58.440;15.470;2023-01-30T07:03:20;98553.59;;;1.81;100.00
13420;BME280;6781;58.440;15.470;2023-01-30T07:05:47;98552.91;;;1.79;100.00
13420;BME280;6781;58.440;15.470;2023-01-30T07:08:14;98580.66;;;1.83;100.00
13420;BME280;6781;58.440;15.470;2023-01-30T07:10:41;98579.25;;;1.79;100.00
13420;BME280;6781;58.440;15.470;2023-01-30T07:13:09;98583.31;;;1.82;100.00
13420;BME280;6781;58.440;15.470;2023-01-30T07:15:35;98593.44;;;1.83;100.00
13420;BME280;6781;58.440;15.470;2023-01-30T07:18:05;98596.22;;;1.80;100.00
13420;BME280;6781;58.440;15.470;2023-01-30T07:20:33;98588.09;;;1.75;100.00
13420;BME280;6781;58.440;15.470;2023-01-30T07:23:01;98577.63;;;1.78;100.00
13420;BME280;6781;58.440;15.470;2023-01-30T07:25:28;98581.47;;;1.84;100.00
13420;BME280;6781;58.440;15.470;2023-01-30T07:27:56;98584.94;;;1.83;100.00
13420;BME280;6781;58.440;15.470;2023-01-30T07:30:23;98592.38;;;1.86;100.00
13420;BME280;6781;58.440;15.470;2023-01-30T07:32:50;98589.81;;;1.86;100.00
13420;BME280;6781;58.440;15.470;2023-01-30T07:35:17;98595.88;;;1.85;100.00
13420;BME280;6781;58.440;15.470;2023-01-30T07:37:45;98614.56;;;1.85;100.00
13420;BME280;6781;58.440;15.470;2023-01-30T07:40:12;98608.53;;;1.86;100.00
13420;BME280;6781;58.440;15.470;2023-01-30T07:42:39;98601.44;;;1.90;100.00
13420;BME280;6781;58.440;15.470;2023-01-30T07:45:06;98605.75;;;1.89;100.00
13420;BME280;6781;58.440;15.470;2023-01-30T07:47:33;98596.44;;;1.88;100.00
13420;BME280;6781;58.440;15.470;2023-01-30T07:50:00;98591.34;;;1.88;100.00
13420;BME280;6781;58.440;15.470;2023-01-30T07:52:27;98589.25;;;1.93;100.00
13420;BME280;6781;58.440;15.470;2023-01-30T07:54:55;98579.94;;;1.92;100.00
13420;BME280;6781;58.440;15.470;2023-01-30T07:57:22;98578.91;;;1.95;100.00
13420;BME280;6781;58.440;15.470;2023-01-30T07:59:50;98574.59;;;1.95;100.00
13420;BME280;6781;58.440;15.470;2023-01-30T08:02:17;98582.75;;;2.01;100.00
13420;BME280;6781;58.440;15.470;2023-01-30T08:04:44;98590.16;;;2.04;100.00
13420;BME280;6781;58.440;15.470;2023-01-30T08:07:11;98586.34;;;2.09;100.00
13420;BME280;6781;58.440;15.470;2023-01-30T08:09:38;98597.84;;;2.15;100.00
13420;BME280;6781;58.440;15.470;2023-01-30T08:12:07;98585.50;;;2.20;100.00
13420;BME280;6781;58.440;15.470;2023-01-30T08:14:33;98578.66;;;2.20;100.00
13420;BME280;6781;58.440;15.470;2023-01-30T08:17:00;98572.50;;;2.23;100.00
13420;BME280;6781;58.440;15.470;2023-01-30T08:19:27;98555.66;;;2.20;100.00
13420;BME280;6781;58.440;15.470;2023-01-30T08:21:54;98552.28;;;2.20;100.00
13420;BME280;6781;58.440;15.470;2023-01-30T08:24:31;98562.75;;;2.17;100.00
13420;BME280;6781;58.440;15.470;2023-01-30T08:26:58;98564.13;;;2.21;100.00
13420;BME280;6781;58.440;15.470;2023-01-30T08:29:27;98561.56;;;2.21;100.00
13420;BME280;6781;58.440;15.470;2023-01-30T08:31:55;98555.53;;;2.22;100.00
13420;BME280;6781;58.440;15.470;2023-01-30T08:34:22;98551.91;;;2.24;100.00
13420;BME280;6781;58.440;15.470;2023-01-30T08:36:49;98562.03;;;2.26;100.00
13420;BME280;6781;58.440;15.470;2023-01-30T08:39:16;98537.41;;;2.25;100.00
13420;BME280;6781;58.440;15.470;2023-01-30T08:41:43;98538.09;;;2.27;100.00
13420;BME280;6781;58.440;15.470;2023-01-30T08:44:12;98537.84;;;2.30;100.00
13420;BME280;6781;58.440;15.470;2023-01-30T08:46:40;98527.38;;;2.33;100.00
13420;BME280;6781;58.440;15.470;2023-01-30T08:49:07;98518.53;;;2.37;100.00
13420;BME280;6781;58.440;15.470;2023-01-30T08:51:34;98512.38;;;2.40;100.00
13420;BME280;6781;58.440;15.470;2023-01-30T08:54:01;98514.06;;;2.50;100.00
13420;BME280;6781;58.440;15.470;2023-01-30T08:56:27;98506.16;;;2.53;100.00
13420;BME280;6781;58.440;15.470;2023-01-30T08:58:54;98496.59;;;2.55;100.00
13420;BME280;6781;58.440;15.470;2023-01-30T09:01:21;98480.91;;;2.60;100.00
13420;BME280;6781;58.440;15.470;2023-01-30T09:03:49;98480.53;;;2.65;100.00
13420;BME280;6781;58.440;15.470;2023-01-30T09:06:16;98479.22;;;2.70;100.00
13420;BME280;6781;58.440;15.470;2023-01-30T09:08:43;98469.91;;;2.69;100.00
13420;BME280;6781;58.440;15.470;2023-01-30T09:11:10;98472.09;;;2.74;100.00
13420;BME280;6781;58.440;15.470;2023-01-30T09:13:37;98467.94;;;2.73;100.00
13420;BME280;6781;58.440;15.470;2023-01-30T09:16:07;98459.75;;;2.79;100.00
13420;BME280;6781;58.440;15.470;2023-01-30T09:18:36;98454.13;;;2.85;100.00
13420;BME280;6781;58.440;15.470;2023-01-30T09:21:05;98444.56;;;2.87;100.00
13420;BME280;6781;58.440;15.470;2023-01-30T09:23:32;98434.09;;;2.90;100.00
13420;BME280;6781;58.440;15.470;2023-01-30T09:26:00;98434.66;;;2.93;100.00
13420;BME280;6781;58.440;15.470;2023-01-30T09:28:26;98433.16;;;2.91;100.00
13420;BME280;6781;58.440;15.470;2023-01-30T09:30:55;98430.09;;;2.97;100.00
13420;BME280;6781;58.440;15.470;2023-01-30T09:33:21;98432.13;;;3.03;100.00
13420;BME280;6781;58.440;15.470;2023-01-30T09:35:48;98428.53;;;3.06;100.00
13420;BME280;6781;58.440;15.470;2023-01-30T09:38:17;98411.28;;;3.08;100.00
13420;BME280;6781;58.440;15.470;2023-01-30T09:40:47;98396.22;;;3.14;100.00
13420;BME280;6781;58.440;15.470;2023-01-30T09:43:19;98392.19;;;3.21;100.00
13420;BME280;6781;58.440;15.470;2023-01-30T09:45:52;98387.25;;;3.30;100.00
13420;BME280;6781;58.440;15.470;2023-01-30T09:48:23;98363.94;;;3.33;100.00
13420;BME280;6781;58.440;15.470;2023-01-30T09:50:58;98349.66;;;3.40;100.00
13420;BME280;6781;58.440;15.470;2023-01-30T09:53:30;98352.63;;;3.45;100.00
13420;BME280;6781;58.440;15.470;2023-01-30T09:56:00;98344.94;;;3.45;100.00
13420;BME280;6781;58.440;15.470;2023-01-30T09:58:29;98346.97;;;3.51;100.00
13420;BME280;6781;58.440;15.470;2023-01-30T10:01:00;98337.78;;;3.58;100.00
13420;BME280;6781;58.440;15.470;2023-01-30T10:03:30;98324.56;;;3.53;100.00
13420;BME280;6781;58.440;15.470;2023-01-30T10:05:59;98304.47;;;3.48;100.00
13420;BME280;6781;58.440;15.470;2023-01-30T10:08:38;98290.88;;;3.57;100.00
13420;BME280;6781;58.440;15.470;2023-01-30T10:11:10;98270.66;;;3.54;100.00
13420;BME280;6781;58.440;15.470;2023-01-30T10:13:43;98277.09;;;3.49;100.00
13420;BME280;6781;58.440;15.470;2023-01-30T10:16:14;98268.22;;;3.53;100.00
13420;BME280;6781;58.440;15.470;2023-01-30T10:18:51;98278.63;;;3.42;100.00
13420;BME280;6781;58.440;15.470;2023-01-30T10:21:22;98289.81;;;3.41;100.00
13420;BME280;6781;58.440;15.470;2023-01-30T10:23:58;98286.03;;;3.45;100.00
13420;BME280;6781;58.440;15.470;2023-01-30T10:26:30;98271.88;;;3.41;100.00
13420;BME280;6781;58.440;15.470;2023-01-30T10:28:59;98266.75;;;3.41;100.00
13420;BME280;6781;58.440;15.470;2023-01-30T10:31:31;98267.03;;;3.38;100.00
13420;BME280;6781;58.440;15.470;2023-01-30T10:34:02;98258.41;;;3.39;100.00
13420;BME280;6781;58.440;15.470;2023-01-30T10:36:31;98252.59;;;3.27;100.00
13420;BME280;6781;58.440;15.470;2023-01-30T10:39:02;98260.25;;;3.17;100.00
13420;BME280;6781;58.440;15.470;2023-01-30T10:41:32;98265.50;;;3.16;100.00
13420;BME280;6781;58.440;15.470;2023-01-30T10:44:02;98256.63;;;3.20;100.00
13420;BME280;6781;58.440;15.470;2023-01-30T10:46:34;98258.50;;;3.08;100.00
13420;BME280;6781;58.440;15.470;2023-01-30T10:49:05;98258.63;;;3.16;100.00
13420;BME280;6781;58.440;15.470;2023-01-30T10:51:37;98252.19;;;3.22;100.00
13420;BME280;6781;58.440;15.470;2023-01-30T10:54:10;98238.03;;;3.28;100.00
13420;BME280;6781;58.440;15.470;2023-01-30T10:56:39;98236.41;;;3.36;100.00
13420;BME280;6781;58.440;15.470;2023-01-30T10:59:20;98227.13;;;3.45;100.00
13420;BME280;6781;58.440;15.470;2023-01-30T11:01:48;98219.28;;;3.56;100.00
13420;BME280;6781;58.440;15.470;2023-01-30T11:04:21;98220.75;;;3.58;100.00
13420;BME280;6781;58.440;15.470;2023-01-30T11:06:51;98206.03;;;3.70;100.00
13420;BME280;6781;58.440;15.470;2023-01-30T11:09:19;98191.06;;;3.75;100.00
13420;BME280;6781;58.440;15.470;2023-01-30T11:11:46;98189.69;;;3.90;100.00
13420;BME280;6781;58.440;15.470;2023-01-30T11:14:14;98186.97;;;3.92;100.00
13420;BME280;6781;58.440;15.470;2023-01-30T11:16:42;98179.81;;;3.96;100.00
13420;BME280;6781;58.440;15.470;2023-01-30T11:19:09;98151.72;;;4.04;100.00
13420;BME280;6781;58.440;15.470;2023-01-30T11:21:36;98148.03;;;4.16;100.00
13420;BME280;6781;58.440;15.470;2023-01-30T11:24:11;98139.34;;;4.27;100.00
13420;BME280;6781;58.440;15.470;2023-01-30T11:26:40;98115.03;;;4.31;100.00
13420;BME280;6781;58.440;15.470;2023-01-30T11:29:13;98116.84;;;4.20;100.00
13420;BME280;6781;58.440;15.470;2023-01-30T11:31:41;98103.13;;;4.12;100.00
13420;BME280;6781;58.440;15.470;2023-01-30T11:34:11;98077.56;;;4.20;100.00
13420;BME280;6781;58.440;15.470;2023-01-30T11:36:38;98066.94;;;4.15;100.00
13420;BME280;6781;58.440;15.470;2023-01-30T11:39:17;98065.69;;;4.19;100.00
13420;BME280;6781;58.440;15.470;2023-01-30T11:41:56;98063.84;;;4.11;100.00
13420;BME280;6781;58.440;15.470;2023-01-30T11:44:24;98059.94;;;4.07;100.00
13420;BME280;6781;58.440;15.470;2023-01-30T11:46:51;98042.00;;;4.07;100.00
13420;BME280;6781;58.440;15.470;2023-01-30T11:49:19;98055.00;;;3.96;100.00
13420;BME280;6781;58.440;15.470;2023-01-30T11:51:50;98041.00;;;3.90;100.00
13420;BME280;6781;58.440;15.470;2023-01-30T11:54:18;98050.78;;;3.77;100.00
13420;BME280;6781;58.440;15.470;2023-01-30T11:56:50;98057.31;;;3.62;100.00
13420;BME280;6781;58.440;15.470;2023-01-30T11:59:20;98050.16;;;3.66;100.00
13420;BME280;6781;58.440;15.470;2023-01-30T12:01:49;98058.25;;;3.61;100.00
13420;BME280;6781;58.440;15.470;2023-01-30T12:04:16;98073.78;;;3.50;100.00
13420;BME280;6781;58.440;15.470;2023-01-30T12:06:44;98090.56;;;3.44;100.00
13420;BME280;6781;58.440;15.470;2023-01-30T12:09:26;98085.19;;;3.38;100.00
13420;BME280;6781;58.440;15.470;2023-01-30T12:11:56;98088.16;;;3.33;100.00
13420;BME280;6781;58.440;15.470;2023-01-30T12:14:26;98099.59;;;3.39;100.00
13420;BME280;6781;58.440;15.470;2023-01-30T12:16:59;98097.59;;;3.33;100.00
13420;BME280;6781;58.440;15.470;2023-01-30T12:22:21;98114.28;;;3.37;100.00
13420;BME280;6781;58.440;15.470;2023-01-30T12:24:51;98111.75;;;3.37;100.00
13420;BME280;6781;58.440;15.470;2023-01-30T12:27:25;98120.63;;;3.33;100.00
13420;BME280;6781;58.440;15.470;2023-01-30T12:29:58;98124.81;;;3.34;100.00
13420;BME280;6781;58.440;15.470;2023-01-30T12:32:26;98139.38;;;3.33;100.00
13420;BME280;6781;58.440;15.470;2023-01-30T12:34:53;98147.59;;;3.37;100.00
13420;BME280;6781;58.440;15.470;2023-01-30T12:37:30;98164.19;;;3.33;100.00
13420;BME280;6781;58.440;15.470;2023-01-30T12:40:02;98173.34;;;3.35;100.00
13420;BME280;6781;58.440;15.470;2023-01-30T12:42:50;98168.34;;;3.34;100.00
13420;BME280;6781;58.440;15.470;2023-01-30T12:45:21;98181.56;;;3.39;100.00
13420;BME280;6781;58.440;15.470;2023-01-30T12:47:56;98158.91;;;3.44;100.00
13420;BME280;6781;58.440;15.470;2023-01-30T12:50:30;98155.78;;;3.50;100.00
13420;BME280;6781;58.440;15.470;2023-01-30T12:55:47;98134.72;;;3.56;100.00
13420;BME280;6781;58.440;15.470;2023-01-30T12:58:18;98108.28;;;3.65;100.00
13420;BME280;6781;58.440;15.470;2023-01-30T13:00:50;98098.69;;;3.67;100.00
13420;BME280;6781;58.440;15.470;2023-01-30T13:03:26;98070.16;;;3.89;100.00
13420;BME280;6781;58.440;15.470;2023-01-30T13:05:59;98057.53;;;3.78;100.00
13420;BME280;6781;58.440;15.470;2023-01-30T13:11:20;98037.53;;;3.82;100.00
13420;BME280;6781;58.440;15.470;2023-01-30T13:13:55;98030.09;;;3.88;100.00
13420;BME280;6781;58.440;15.470;2023-01-30T13:16:27;98019.75;;;3.80;100.00
13420;BME280;6781;58.440;15.470;2023-01-30T13:18:59;98010.41;;;3.89;100.00
13420;BME280;6781;58.440;15.470;2023-01-30T13:21:30;98005.16;;;3.81;100.00
13420;BME280;6781;58.440;15.470;2023-01-30T13:24:03;98008.16;;;3.76;100.00
13420;BME280;6781;58.440;15.470;2023-01-30T13:26:32;98009.78;;;3.77;100.00
13420;BME280;6781;58.440;15.470;2023-01-30T13:29:03;98008.03;;;3.78;100.00
13420;BME280;6781;58.440;15.470;2023-01-30T13:31:31;98013.94;;;3.78;100.00